Brilliance Of The Seas — C6SJ5 — position and weather

sailwx.info

Track history (hours):
 
Tides and Currents Weather Stations Pressure Air Temp Water Temp Dewpoint Dewpoint Depression Visibility Wind Speed Wind Dir Waves Ship Positions

Brilliance Of The Seas

Operator: Royal Caribbean Cruises Ltd

Last reported at 2017-Oct-19 03:28 UTC. Time now 2017-Oct-19 11:11 UTC.
Position N 42°02' E 011°35'.

Type: Ship. MMSI: 311361000.

Date/timePositionNaut miles runAvg speedWind from/ knotsBaromVisibWave heightAir tempDewpointWater temp
2017-Oct-19 03:28N 42°02' E 011°35'9511.4
2017-Oct-18 19:05N 43°12' E 010°07'115.1
2017-Oct-18 19:00N 43°14' E 010°08'715.0
2017-Oct-18 18:30N 43°21' E 010°10'815.1
2017-Oct-18 18:00N 43°28' E 010°12'510.7
2017-Oct-18 17:30N 43°32' E 010°17'1 2.7
2017-Oct-18 16:58N 43°33' E 010°18'0 0.0
2017-Oct-18 16:28N 43°33' E 010°18'0 0.0
2017-Oct-18 15:58N 43°33' E 010°18'0 0.0
2017-Oct-18 15:28N 43°33' E 010°18'0 0.0
2017-Oct-18 14:58N 43°33' E 010°18'0 0.0
2017-Oct-18 13:58N 43°33' E 010°18'0 0.0
2017-Oct-18 13:28N 43°33' E 010°18'0 0.0
2017-Oct-18 12:58N 43°33' E 010°18'0 0.0
2017-Oct-18 12:28N 43°33' E 010°18'0 0.0
2017-Oct-18 11:58N 43°33' E 010°18'0 0.0
2017-Oct-18 11:28N 43°33' E 010°18'0 0.0
2017-Oct-18 10:58N 43°33' E 010°18'0 0.0
2017-Oct-18 10:28N 43°33' E 010°18'0 0.0
2017-Oct-18 09:55N 43°33' E 010°18'0 0.0
2017-Oct-18 09:28N 43°33' E 010°18'0 0.0
2017-Oct-18 08:55N 43°33' E 010°18'0 0.0
2017-Oct-18 08:28N 43°33' E 010°18'0 0.0
2017-Oct-18 07:58N 43°33' E 010°18'0 0.0
2017-Oct-18 07:28N 43°33' E 010°18'0 0.0
2017-Oct-18 06:52N 43°33' E 010°18'0 0.0
2017-Oct-18 06:28N 43°33' E 010°18'0 0.0
2017-Oct-18 05:55N 43°33' E 010°18'0 0.0
2017-Oct-18 05:28N 43°33' E 010°18'511.3
2017-Oct-18 05:00N 43°30' E 010°12'5250.0 030 / 6 10.8 14.5 18.0
2017-Oct-18 04:58N 43°33' E 010°18'0 0.0
2017-Oct-18 04:29N 43°33' E 010°18'1 1.1
2017-Oct-18 04:00N 43°33' E 010°17'4 7.9
2017-Oct-18 03:30N 43°30' E 010°14'613.0
2017-Oct-18 03:00N 43°29' E 010°05'813.6
2017-Oct-18 02:26N 43°31' E 009°54'613.4
2017-Oct-18 02:00N 43°31' E 009°47'713.6
2017-Oct-18 01:30N 43°31' E 009°37'713.7
2017-Oct-18 01:00N 43°31' E 009°28'713.6
2017-Oct-18 00:30N 43°31' E 009°18'713.9
2017-Oct-18 00:00N 43°30' E 009°09'713.7
2017-Oct-17 23:30N 43°30' E 008°59'713.7
2017-Oct-17 23:01N 43°30' E 008°50'1813.8
2017-Oct-17 21:43N 43°30' E 008°25'614.4
2017-Oct-17 21:19N 43°30' E 008°17'1014.2
2017-Oct-17 20:38N 43°29' E 008°04'214.1
2017-Oct-17 20:30N 43°29' E 008°02'714.0
2017-Oct-17 20:00N 43°29' E 007°52'713.9
2017-Oct-17 19:30N 43°29' E 007°42'713.8
2017-Oct-17 19:00N 43°29' E 007°33'161017.1
2017-Oct-17 19:00N 43°24' E 007°12'1019.9 180 / 61024.0 19.015.921.0
2017-Oct-17 18:30N 43°29' E 007°24'713.7
2017-Oct-17 18:00N 43°29' E 007°14'714.2
2017-Oct-17 17:30N 43°29' E 007°04'4 8.6
2017-Oct-17 17:00N 43°32' E 007°01'0 0.2
2017-Oct-17 16:16N 43°32' E 007°01'0 0.1
2017-Oct-17 15:58N 43°32' E 007°01'0 0.1
2017-Oct-17 15:19N 43°32' E 007°01'0 0.0
2017-Oct-17 14:58N 43°32' E 007°01'0 0.1
2017-Oct-17 14:28N 43°32' E 007°01'0 0.1
2017-Oct-17 13:58N 43°32' E 007°01'0 0.0
2017-Oct-17 13:28N 43°32' E 007°01'0 0.0
2017-Oct-17 12:58N 43°32' E 007°01'0 0.0
2017-Oct-17 12:25N 43°32' E 007°01'0 0.0
2017-Oct-17 11:49N 43°32' E 007°01'0 0.1
2017-Oct-17 11:28N 43°32' E 007°01'0 0.0
2017-Oct-17 10:55N 43°32' E 007°01'0 0.0
2017-Oct-17 10:22N 43°32' E 007°01'0 0.0
2017-Oct-17 09:52N 43°32' E 007°01'0 0.0
2017-Oct-17 09:22N 43°32' E 007°01'0 0.0
2017-Oct-17 08:55N 43°32' E 007°01'0 0.1
2017-Oct-17 08:28N 43°32' E 007°01'0 0.0
2017-Oct-17 07:55N 43°32' E 007°01'0 0.0
2017-Oct-17 07:28N 43°32' E 007°01'0 0.0
2017-Oct-17 06:55N 43°32' E 007°01'0 0.0
2017-Oct-17 06:22N 43°32' E 007°01'0 0.0
2017-Oct-17 05:55N 43°32' E 007°01'0 0.1
2017-Oct-17 05:30N 43°32' E 007°01'5 9.2
2017-Oct-17 05:01N 43°28' E 006°59'3619.5
2017-Oct-17 03:09N 42°58' E 006°30'319.1
2017-Oct-17 02:59N 42°56' E 006°27'918.9
2017-Oct-17 02:30N 42°52' E 006°16'918.2
2017-Oct-17 02:00N 42°48' E 006°05'1019.4
2017-Oct-17 01:30N 42°44' E 005°53'1019.8
2017-Oct-17 01:00N 42°39' E 005°41'1020.1
2017-Oct-17 00:31N 42°34' E 005°29'1120.0
2017-Oct-16 23:59N 42°29' E 005°17'919.8
2017-Oct-16 23:30N 42°24' E 005°06'6119.7
2017-Oct-16 20:25N 41°55' E 003°54'5121.0
2017-Oct-16 18:00N 41°30' E 002°54'35 2.4 190 / 151028.010.8 22.0 22.0
2017-Oct-16 03:15N 41°18' E 002°10'16517.9
2017-Oct-15 18:00N 39°54' E 005°18'24618.9 080 / 71029.0 22.019.024.0
2017-Oct-15 05:00N 38°12' E 010°06'21018.7 020 / 91029.010.8 21.0 23.0
2017-Oct-14 17:43N 36°23' E 013°52'418.7
2017-Oct-14 17:30N 36°21' E 013°56'918.7
2017-Oct-14 17:00N 36°15' E 014°06'6726.8
2017-Oct-14 17:00N 36°12' E 014°00'1225.4 230 / 101027.0 22.019.023.0
2017-Oct-14 16:30N 36°10' E 014°15'917.9
2017-Oct-14 16:00N 36°05' E 014°24'918.0
2017-Oct-14 15:30N 35°59' E 014°32'11 1.1
2017-Oct-14 06:00N 35°48' E 014°30'6 3.4 1026.027.0 19.0 24.0
2017-Oct-14 04:15N 35°54' E 014°31'2 6.7
2017-Oct-14 04:00N 35°55' E 014°33'612.8
2017-Oct-14 03:30N 35°59' E 014°39'713.2
2017-Oct-14 03:00N 36°02' E 014°46'17114.3
2017-Oct-13 15:00N 36°00' E 018°18'15113.7 340 / 151024.027.0 22.0 22.0
2017-Oct-13 04:00N 35°54' E 021°24'14215.8 330 / 191022.027.0 22.0 24.0
2017-Oct-12 19:00N 36°12' E 024°18'20 1.0 360 / 271023.0 21.018.023.0
2017-Oct-11 23:00N 36°18' E 024°42'5010.6 350 / 191022.010.8 21.0 23.0
2017-Oct-11 18:16N 37°07' E 024°54'310.2
2017-Oct-11 18:00N 37°10' E 024°56'510.2
2017-Oct-11 17:30N 37°14' E 024°58'5 9.4
2017-Oct-11 17:00N 37°18' E 025°02'7 6.6
2017-Oct-11 16:00N 37°24' E 025°06'10 0.9 350 / 211021.027.0 19.0 22.0
2017-Oct-11 05:00N 37°24' E 025°18'67 8.4 010 / 201021.027.0 20.0 22.0
2017-Oct-10 21:00N 37°18' E 023°54'22 6.4 050 / 81023.0 21.018.024.0
2017-Oct-10 17:29N 37°39' E 023°43'4 9.5
2017-Oct-10 17:00N 37°43' E 023°40'5 9.3
2017-Oct-10 16:30N 37°47' E 023°38'5 9.0
2017-Oct-10 16:00N 37°51' E 023°36'5 9.0
2017-Oct-10 15:30N 37°56' E 023°37'1 1.6
2017-Oct-10 15:00N 37°56' E 023°37'0 0.0
2017-Oct-10 13:57N 37°56' E 023°37'0 0.0
2017-Oct-10 13:30N 37°56' E 023°37'0 0.0
2017-Oct-10 13:00N 37°56' E 023°37'0 0.0
2017-Oct-10 12:30N 37°56' E 023°37'0 0.0
2017-Oct-10 12:00N 37°56' E 023°37'0 0.0
2017-Oct-10 11:30N 37°56' E 023°37'0 0.0
2017-Oct-10 11:00N 37°56' E 023°37'0 0.0
2017-Oct-10 10:30N 37°56' E 023°37'0 0.0
2017-Oct-10 09:57N 37°56' E 023°37'0 0.0
2017-Oct-10 09:30N 37°56' E 023°37'0 0.0
2017-Oct-10 08:57N 37°56' E 023°37'0 0.0
2017-Oct-10 08:30N 37°56' E 023°37'0 0.0
2017-Oct-10 08:00N 37°56' E 023°37'0 0.0
2017-Oct-10 07:30N 37°56' E 023°37'0 0.0
2017-Oct-10 07:00N 37°56' E 023°37'0 0.0
2017-Oct-10 06:30N 37°56' E 023°37'0 0.0
2017-Oct-10 06:00N 37°56' E 023°37'0 0.0
2017-Oct-10 05:30N 37°56' E 023°37'0 0.0
2017-Oct-10 05:00N 37°56' E 023°37'0 0.0
2017-Oct-10 04:30N 37°56' E 023°37'0 0.0
2017-Oct-10 04:00N 37°56' E 023°37'0 0.0
2017-Oct-10 03:30N 37°56' E 023°37'0 0.0
2017-Oct-10 03:00N 37°56' E 023°37'0 0.0
2017-Oct-10 02:30N 37°56' E 023°37'0 0.1
2017-Oct-10 02:01N 37°56' E 023°37'1 2.4
2017-Oct-10 01:31N 37°55' E 023°37'611.3
2017-Oct-10 01:01N 37°50' E 023°40'713.7
2017-Oct-10 00:30N 37°44' E 023°43'713.0
2017-Oct-10 00:00N 37°37' E 023°45'16110.7
2017-Oct-09 09:00N 36°42' E 020°36'8817.7 340 / 171020.027.0 22.0 22.0
2017-Oct-09 04:00N 37°00' E 018°48'   350 / 131019.027.0 21.0 24.0
Track history (hours):
 
Tides and Currents Weather Stations Pressure Air Temp Water Temp Dewpoint Dewpoint Depression Visibility Wind Speed Wind Dir Waves Ship Positions

Brilliance Of The Seas

Operator: Royal Caribbean Cruises Ltd

Last reported at 2017-Oct-19 03:28 UTC. Time now 2017-Oct-19 11:11 UTC.
Position N 42°02' E 011°35'.

Type: Ship. MMSI: 311361000.

Date/timePositionNaut miles runAvg speedWind from/ knotsBaromVisibWave heightAir tempDewpointWater temp
2017-Oct-19 03:28N 42°02' E 011°35'9511.4
2017-Oct-18 19:05N 43°12' E 010°07'115.1
2017-Oct-18 19:00N 43°14' E 010°08'715.0
2017-Oct-18 18:30N 43°21' E 010°10'815.1
2017-Oct-18 18:00N 43°28' E 010°12'510.7
2017-Oct-18 17:30N 43°32' E 010°17'1 2.7
2017-Oct-18 16:58N 43°33' E 010°18'0 0.0
2017-Oct-18 16:28N 43°33' E 010°18'0 0.0
2017-Oct-18 15:58N 43°33' E 010°18'0 0.0
2017-Oct-18 15:28N 43°33' E 010°18'0 0.0
2017-Oct-18 14:58N 43°33' E 010°18'0 0.0
2017-Oct-18 13:58N 43°33' E 010°18'0 0.0
2017-Oct-18 13:28N 43°33' E 010°18'0 0.0
2017-Oct-18 12:58N 43°33' E 010°18'0 0.0
2017-Oct-18 12:28N 43°33' E 010°18'0 0.0
2017-Oct-18 11:58N 43°33' E 010°18'0 0.0
2017-Oct-18 11:28N 43°33' E 010°18'0 0.0
2017-Oct-18 10:58N 43°33' E 010°18'0 0.0
2017-Oct-18 10:28N 43°33' E 010°18'0 0.0
2017-Oct-18 09:55N 43°33' E 010°18'0 0.0
2017-Oct-18 09:28N 43°33' E 010°18'0 0.0
2017-Oct-18 08:55N 43°33' E 010°18'0 0.0
2017-Oct-18 08:28N 43°33' E 010°18'0 0.0
2017-Oct-18 07:58N 43°33' E 010°18'0 0.0
2017-Oct-18 07:28N 43°33' E 010°18'0 0.0
2017-Oct-18 06:52N 43°33' E 010°18'0 0.0
2017-Oct-18 06:28N 43°33' E 010°18'0 0.0
2017-Oct-18 05:55N 43°33' E 010°18'0 0.0
2017-Oct-18 05:28N 43°33' E 010°18'511.3
2017-Oct-18 05:00N 43°30' E 010°12'5250.0 030 / 6 10.8 14.5 18.0
2017-Oct-18 04:58N 43°33' E 010°18'0 0.0
2017-Oct-18 04:29N 43°33' E 010°18'1 1.1
2017-Oct-18 04:00N 43°33' E 010°17'4 7.9
2017-Oct-18 03:30N 43°30' E 010°14'613.0
2017-Oct-18 03:00N 43°29' E 010°05'813.6
2017-Oct-18 02:26N 43°31' E 009°54'613.4
2017-Oct-18 02:00N 43°31' E 009°47'713.6
2017-Oct-18 01:30N 43°31' E 009°37'713.7
2017-Oct-18 01:00N 43°31' E 009°28'713.6
2017-Oct-18 00:30N 43°31' E 009°18'713.9
2017-Oct-18 00:00N 43°30' E 009°09'713.7
2017-Oct-17 23:30N 43°30' E 008°59'713.7
2017-Oct-17 23:01N 43°30' E 008°50'1813.8
2017-Oct-17 21:43N 43°30' E 008°25'614.4
2017-Oct-17 21:19N 43°30' E 008°17'1014.2
2017-Oct-17 20:38N 43°29' E 008°04'214.1
2017-Oct-17 20:30N 43°29' E 008°02'714.0
2017-Oct-17 20:00N 43°29' E 007°52'713.9
2017-Oct-17 19:30N 43°29' E 007°42'713.8
2017-Oct-17 19:00N 43°29' E 007°33'161017.1
2017-Oct-17 19:00N 43°24' E 007°12'1019.9 180 / 61024.0 19.015.921.0
2017-Oct-17 18:30N 43°29' E 007°24'713.7
2017-Oct-17 18:00N 43°29' E 007°14'714.2
2017-Oct-17 17:30N 43°29' E 007°04'4 8.6
2017-Oct-17 17:00N 43°32' E 007°01'0 0.2
2017-Oct-17 16:16N 43°32' E 007°01'0 0.1
2017-Oct-17 15:58N 43°32' E 007°01'0 0.1
2017-Oct-17 15:19N 43°32' E 007°01'0 0.0
2017-Oct-17 14:58N 43°32' E 007°01'0 0.1
2017-Oct-17 14:28N 43°32' E 007°01'0 0.1
2017-Oct-17 13:58N 43°32' E 007°01'0 0.0
2017-Oct-17 13:28N 43°32' E 007°01'0 0.0
2017-Oct-17 12:58N 43°32' E 007°01'0 0.0
2017-Oct-17 12:25N 43°32' E 007°01'0 0.0
2017-Oct-17 11:49N 43°32' E 007°01'0 0.1
2017-Oct-17 11:28N 43°32' E 007°01'0 0.0
2017-Oct-17 10:55N 43°32' E 007°01'0 0.0
2017-Oct-17 10:22N 43°32' E 007°01'0 0.0
2017-Oct-17 09:52N 43°32' E 007°01'0 0.0
2017-Oct-17 09:22N 43°32' E 007°01'0 0.0
2017-Oct-17 08:55N 43°32' E 007°01'0 0.1
2017-Oct-17 08:28N 43°32' E 007°01'0 0.0
2017-Oct-17 07:55N 43°32' E 007°01'0 0.0
2017-Oct-17 07:28N 43°32' E 007°01'0 0.0
2017-Oct-17 06:55N 43°32' E 007°01'0 0.0
2017-Oct-17 06:22N 43°32' E 007°01'0 0.0
2017-Oct-17 05:55N 43°32' E 007°01'0 0.1
2017-Oct-17 05:30N 43°32' E 007°01'5 9.2
2017-Oct-17 05:01N 43°28' E 006°59'3619.5
2017-Oct-17 03:09N 42°58' E 006°30'319.1
2017-Oct-17 02:59N 42°56' E 006°27'918.9
2017-Oct-17 02:30N 42°52' E 006°16'918.2
2017-Oct-17 02:00N 42°48' E 006°05'1019.4
2017-Oct-17 01:30N 42°44' E 005°53'1019.8
2017-Oct-17 01:00N 42°39' E 005°41'1020.1
2017-Oct-17 00:31N 42°34' E 005°29'1120.0
2017-Oct-16 23:59N 42°29' E 005°17'919.8
2017-Oct-16 23:30N 42°24' E 005°06'6119.7
2017-Oct-16 20:25N 41°55' E 003°54'5121.0
2017-Oct-16 18:00N 41°30' E 002°54'35 2.4 190 / 151028.010.8 22.0 22.0
2017-Oct-16 03:15N 41°18' E 002°10'16517.9
2017-Oct-15 18:00N 39°54' E 005°18'24618.9 080 / 71029.0 22.019.024.0
2017-Oct-15 05:00N 38°12' E 010°06'21018.7 020 / 91029.010.8 21.0 23.0
2017-Oct-14 17:43N 36°23' E 013°52'418.7
2017-Oct-14 17:30N 36°21' E 013°56'918.7
2017-Oct-14 17:00N 36°15' E 014°06'6726.8
2017-Oct-14 17:00N 36°12' E 014°00'1225.4 230 / 101027.0 22.019.023.0
2017-Oct-14 16:30N 36°10' E 014°15'917.9
2017-Oct-14 16:00N 36°05' E 014°24'918.0
2017-Oct-14 15:30N 35°59' E 014°32'11 1.1
2017-Oct-14 06:00N 35°48' E 014°30'6 3.4 1026.027.0 19.0 24.0
2017-Oct-14 04:15N 35°54' E 014°31'2 6.7
2017-Oct-14 04:00N 35°55' E 014°33'612.8
2017-Oct-14 03:30N 35°59' E 014°39'713.2
2017-Oct-14 03:00N 36°02' E 014°46'17114.3
2017-Oct-13 15:00N 36°00' E 018°18'15113.7 340 / 151024.027.0 22.0 22.0
2017-Oct-13 04:00N 35°54' E 021°24'14215.8 330 / 191022.027.0 22.0 24.0
2017-Oct-12 19:00N 36°12' E 024°18'20 1.0 360 / 271023.0 21.018.023.0
2017-Oct-11 23:00N 36°18' E 024°42'5010.6 350 / 191022.010.8 21.0 23.0
2017-Oct-11 18:16N 37°07' E 024°54'310.2
2017-Oct-11 18:00N 37°10' E 024°56'510.2
2017-Oct-11 17:30N 37°14' E 024°58'5 9.4
2017-Oct-11 17:00N 37°18' E 025°02'7 6.6
2017-Oct-11 16:00N 37°24' E 025°06'10 0.9 350 / 211021.027.0 19.0 22.0
2017-Oct-11 05:00N 37°24' E 025°18'67 8.4 010 / 201021.027.0 20.0 22.0
2017-Oct-10 21:00N 37°18' E 023°54'22 6.4 050 / 81023.0 21.018.024.0
2017-Oct-10 17:29N 37°39' E 023°43'4 9.5
2017-Oct-10 17:00N 37°43' E 023°40'5 9.3
2017-Oct-10 16:30N 37°47' E 023°38'5 9.0
2017-Oct-10 16:00N 37°51' E 023°36'5 9.0
2017-Oct-10 15:30N 37°56' E 023°37'1 1.6
2017-Oct-10 15:00N 37°56' E 023°37'0 0.0
2017-Oct-10 13:57N 37°56' E 023°37'0 0.0
2017-Oct-10 13:30N 37°56' E 023°37'0 0.0
2017-Oct-10 13:00N 37°56' E 023°37'0 0.0
2017-Oct-10 12:30N 37°56' E 023°37'0 0.0
2017-Oct-10 12:00N 37°56' E 023°37'0 0.0
2017-Oct-10 11:30N 37°56' E 023°37'0 0.0
2017-Oct-10 11:00N 37°56' E 023°37'0 0.0
2017-Oct-10 10:30N 37°56' E 023°37'0 0.0
2017-Oct-10 09:57N 37°56' E 023°37'0 0.0
2017-Oct-10 09:30N 37°56' E 023°37'0 0.0
2017-Oct-10 08:57N 37°56' E 023°37'0 0.0
2017-Oct-10 08:30N 37°56' E 023°37'0 0.0
2017-Oct-10 08:00N 37°56' E 023°37'0 0.0
2017-Oct-10 07:30N 37°56' E 023°37'0 0.0
2017-Oct-10 07:00N 37°56' E 023°37'0 0.0
2017-Oct-10 06:30N 37°56' E 023°37'0 0.0
2017-Oct-10 06:00N 37°56' E 023°37'0 0.0
2017-Oct-10 05:30N 37°56' E 023°37'0 0.0
2017-Oct-10 05:00N 37°56' E 023°37'0 0.0
2017-Oct-10 04:30N 37°56' E 023°37'0 0.0
2017-Oct-10 04:00N 37°56' E 023°37'0 0.0
2017-Oct-10 03:30N 37°56' E 023°37'0 0.0
2017-Oct-10 03:00N 37°56' E 023°37'0 0.0
2017-Oct-10 02:30N 37°56' E 023°37'0 0.1
2017-Oct-10 02:01N 37°56' E 023°37'1 2.4
2017-Oct-10 01:31N 37°55' E 023°37'611.3
2017-Oct-10 01:01N 37°50' E 023°40'713.7
2017-Oct-10 00:30N 37°44' E 023°43'713.0
2017-Oct-10 00:00N 37°37' E 023°45'16110.7
2017-Oct-09 09:00N 36°42' E 020°36'8817.7 340 / 171020.027.0 22.0 22.0
2017-Oct-09 04:00N 37°00' E 018°48'   350 / 131019.027.0 21.0 24.0

Dump ship's entire track history